createdAt,value
2022-08-16T00:02:26.409Z,99370
2022-08-16T00:07:26.409Z,99374
2022-08-16T00:12:26.620Z,99372
2022-08-16T00:17:26.354Z,99374
2022-08-16T00:22:27.824Z,99371
2022-08-16T00:27:26.421Z,99380
2022-08-16T00:32:26.385Z,99377
2022-08-16T00:37:57.237Z,99371
2022-08-16T00:42:30.484Z,99371
2022-08-16T00:47:26.363Z,99372
2022-08-16T00:52:29.421Z,99384
2022-08-16T00:57:26.373Z,99385
2022-08-16T01:02:31.209Z,99386
2022-08-16T01:07:26.419Z,99386
2022-08-16T01:12:26.863Z,99389
2022-08-16T01:17:26.405Z,99384
2022-08-16T01:22:47.944Z,99384
2022-08-16T01:27:26.389Z,99387
2022-08-16T01:32:33.358Z,99393
2022-08-16T01:37:26.448Z,99388
2022-08-16T01:42:26.463Z,99391
2022-08-16T01:47:26.396Z,99389
2022-08-16T01:52:29.984Z,99380
2022-08-16T01:57:26.404Z,99387
2022-08-16T02:02:28.589Z,99387
2022-08-16T02:07:26.459Z,99396
2022-08-16T02:12:50.626Z,99391
2022-08-16T02:17:26.432Z,99391
2022-08-16T02:22:35.042Z,99391
2022-08-16T02:27:26.442Z,99389
2022-08-16T02:32:50.709Z,99381
2022-08-16T02:37:52.070Z,99384
2022-08-16T02:42:26.480Z,99375
2022-08-16T02:47:26.452Z,99379
2022-08-16T02:52:29.375Z,99375
2022-08-16T02:57:26.503Z,99378
2022-08-16T03:02:32.044Z,99379
2022-08-16T03:07:27.494Z,99380
2022-08-16T03:12:30.382Z,99387
2022-08-16T03:17:32.388Z,99399
2022-08-16T03:22:28.834Z,99402
2022-08-16T03:27:31.296Z,99402
2022-08-16T03:32:26.511Z,99412
2022-08-16T03:37:26.496Z,99419
2022-08-16T03:42:26.528Z,99424
2022-08-16T03:47:26.466Z,99429
2022-08-16T03:52:31.352Z,99431
2022-08-16T03:57:32.111Z,99431
2022-08-16T04:02:31.727Z,99426
2022-08-16T04:07:26.531Z,99433
2022-08-16T04:12:52.494Z,99436
2022-08-16T04:17:26.907Z,99439
2022-08-16T04:22:27.718Z,99439
2022-08-16T04:27:29.019Z,99442
2022-08-16T04:32:26.534Z,99441
2022-08-16T04:37:26.517Z,99445
2022-08-16T04:42:29.694Z,99451
2022-08-16T04:47:31.732Z,99446
2022-08-16T04:52:33.694Z,99446
2022-08-16T04:57:26.564Z,99450
2022-08-16T05:02:41.810Z,99453
2022-08-16T05:07:26.559Z,99453
2022-08-16T05:12:30.517Z,99450
2022-08-16T05:17:26.513Z,99452
2022-08-16T05:22:28.467Z,99452
2022-08-16T05:27:26.555Z,99462
2022-08-16T05:32:32.470Z,99467
2022-08-16T05:37:26.550Z,99468
2022-08-16T05:42:35.697Z,99475
2022-08-16T05:47:26.518Z,99469
2022-08-16T05:52:27.818Z,99467
2022-08-16T05:57:26.534Z,99473
2022-08-16T06:02:29.012Z,99476
2022-08-16T06:07:26.929Z,99483
2022-08-16T06:12:28.955Z,99483
2022-08-16T06:17:42.274Z,99478
2022-08-16T06:22:37.530Z,99486
2022-08-16T06:27:26.542Z,99488
2022-08-16T06:32:27.132Z,99490
2022-08-16T06:37:26.569Z,99487
2022-08-16T06:42:26.609Z,99489
2022-08-16T06:47:52.575Z,99486
2022-08-16T06:53:00.759Z,99488
2022-08-16T06:57:26.560Z,99485
2022-08-16T07:02:32.842Z,99479
2022-08-16T07:07:31.114Z,99479
2022-08-16T07:12:36.561Z,99488
2022-08-16T07:17:26.559Z,99479
2022-08-16T07:22:37.996Z,99483
2022-08-16T07:27:26.579Z,99483
2022-08-16T07:32:29.694Z,99480
2022-08-16T07:37:26.653Z,99476
2022-08-16T07:42:35.016Z,99483
2022-08-16T07:47:31.758Z,99498
2022-08-16T07:52:29.639Z,99502
2022-08-16T07:57:26.598Z,99494
2022-08-16T08:02:27.343Z,99484
2022-08-16T08:07:27.756Z,99486
2022-08-16T08:12:31.217Z,99491
2022-08-16T08:17:42.783Z,99479
2022-08-16T08:22:26.634Z,99483
2022-08-16T08:27:26.608Z,99482
2022-08-16T08:32:57.533Z,99486
2022-08-16T08:37:26.672Z,99487
2022-08-16T08:42:27.945Z,99484
2022-08-16T08:47:26.625Z,99483
2022-08-16T08:52:35.219Z,99481
2022-08-16T08:57:26.624Z,99483
2022-08-16T09:02:26.844Z,99487
2022-08-16T09:07:26.705Z,99479
2022-08-16T09:12:35.359Z,99474
2022-08-16T09:17:45.610Z,99472
2022-08-16T09:22:28.055Z,99470
2022-08-16T09:27:26.660Z,99462
2022-08-16T09:32:30.211Z,99463
2022-08-16T09:37:29.621Z,99449
2022-08-16T09:42:26.693Z,99452
2022-08-16T09:47:26.670Z,99451
2022-08-16T09:52:26.712Z,99455
2022-08-16T09:57:26.667Z,99459
2022-08-16T10:02:27.857Z,99459
2022-08-16T10:07:26.712Z,99448
2022-08-16T10:12:26.704Z,99441
2022-08-16T10:17:26.736Z,99436
2022-08-16T10:22:26.807Z,99436
2022-08-16T10:32:26.732Z,99430
2022-08-16T10:37:35.950Z,99438
2022-08-16T10:42:26.856Z,99439
2022-08-16T10:47:26.718Z,99439
2022-08-16T10:52:26.776Z,99426
2022-08-16T10:57:26.691Z,99424
2022-08-16T11:02:58.163Z,99417
2022-08-16T11:07:43.364Z,99425
2022-08-16T11:12:26.789Z,99436
2022-08-16T11:17:26.707Z,99442
2022-08-16T11:22:46.960Z,99448
2022-08-16T11:27:35.584Z,99457
2022-08-16T11:32:31.729Z,99457
2022-08-16T11:37:27.481Z,99458
2022-08-16T11:42:29.718Z,99467
2022-08-16T11:47:26.743Z,99465
2022-08-16T11:52:27.844Z,99456
2022-08-16T11:57:26.737Z,99449
2022-08-16T12:02:31.368Z,99448
2022-08-16T12:07:26.805Z,99446
2022-08-16T12:12:28.542Z,99452
2022-08-16T12:17:26.748Z,99439
2022-08-16T12:22:26.777Z,99434
2022-08-16T12:27:26.752Z,99428
2022-08-16T12:32:38.237Z,99430
2022-08-16T12:37:27.595Z,99429
2022-08-16T12:42:35.387Z,99429
2022-08-16T12:47:26.762Z,99425
2022-08-16T12:52:33.196Z,99424
2022-08-16T12:57:36.429Z,99416
2022-08-16T13:02:33.755Z,99412
2022-08-16T13:07:27.500Z,99412
2022-08-16T13:12:26.831Z,99397
2022-08-16T13:17:29.796Z,99398
2022-08-16T13:22:26.927Z,99398
2022-08-16T13:27:59.240Z,99394
2022-08-16T13:32:39.839Z,99385
2022-08-16T13:37:26.811Z,99386
2022-08-16T13:42:26.826Z,99392
2022-08-16T13:47:30.147Z,99382
2022-08-16T13:52:33.501Z,99382
2022-08-16T13:57:53.330Z,99382
2022-08-16T14:02:26.865Z,99392
2022-08-16T14:07:26.862Z,99392
2022-08-16T14:12:26.837Z,99411
2022-08-16T14:17:26.824Z,99423
2022-08-16T14:22:31.477Z,99447
2022-08-16T14:27:26.834Z,99401
2022-08-16T14:32:33.990Z,99382
2022-08-16T14:37:26.871Z,99390
2022-08-16T14:42:26.880Z,99387
2022-08-16T14:47:31.596Z,99403
2022-08-16T14:52:55.284Z,99408
2022-08-16T14:57:26.849Z,99415
2022-08-16T15:02:34.009Z,99433
2022-08-16T15:07:29.437Z,99433
2022-08-16T15:12:31.117Z,99437
2022-08-16T15:17:26.851Z,99428
2022-08-16T15:22:26.894Z,99436
2022-08-16T15:27:26.926Z,99431
2022-08-16T15:32:27.139Z,99423
2022-08-16T15:37:26.907Z,99441
2022-08-16T15:42:28.620Z,99437
2022-08-16T15:47:26.866Z,99440
2022-08-16T15:52:29.833Z,99440
2022-08-16T15:57:26.873Z,99432
2022-08-16T16:02:29.448Z,99442
2022-08-16T16:07:26.906Z,99437
2022-08-16T16:12:51.126Z,99445
2022-08-16T16:17:26.879Z,99450
2022-08-16T16:22:26.937Z,99443
2022-08-16T16:27:26.887Z,99444
2022-08-16T16:32:34.265Z,99455
2022-08-16T16:37:26.931Z,99471
2022-08-16T16:42:29.874Z,99483
2022-08-16T16:47:26.938Z,99497
2022-08-16T17:02:41.507Z,99497
2022-08-16T17:07:26.911Z,99509
2022-08-16T17:12:46.904Z,99498
2022-08-16T17:17:29.570Z,99499
2022-08-16T17:22:33.035Z,99510
2022-08-16T17:27:32.410Z,99521
2022-08-16T17:32:33.625Z,99534
2022-08-16T17:37:34.105Z,99542
2022-08-16T17:42:26.960Z,99542
2022-08-16T17:47:26.952Z,99554
2022-08-16T17:52:27.002Z,99577
2022-08-16T17:57:26.965Z,99577
2022-08-16T18:07:26.984Z,99564
2022-08-16T18:12:55.058Z,99589
2022-08-16T18:17:26.991Z,99569
2022-08-16T18:22:30.383Z,99557
2022-08-16T18:27:27.515Z,99557
2022-08-16T18:32:26.966Z,99547
2022-08-16T18:37:27.076Z,99546
2022-08-16T18:42:26.955Z,99546
2022-08-16T18:47:27.001Z,99569
2022-08-16T18:52:27.011Z,99572
2022-08-16T18:57:27.013Z,99571
2022-08-16T19:02:57.103Z,99571
2022-08-16T19:07:29.595Z,99571
2022-08-16T19:12:38.800Z,99576
2022-08-16T19:17:27.070Z,99574
2022-08-16T19:22:45.250Z,99575
2022-08-16T19:27:30.767Z,99582
2022-08-16T19:32:27.022Z,99585
2022-08-16T19:37:27.078Z,99583
2022-08-16T19:42:26.992Z,99593
2022-08-16T19:47:27.189Z,99595
2022-08-16T19:52:27.228Z,99599
2022-08-16T19:57:27.228Z,99597
2022-08-16T20:02:36.669Z,99601
2022-08-16T20:07:27.258Z,99602
2022-08-16T20:12:27.207Z,99596
2022-08-16T20:17:27.276Z,99604
2022-08-16T20:22:52.072Z,99607
2022-08-16T20:27:27.067Z,99610
2022-08-16T20:32:35.968Z,99614
2022-08-16T20:42:27.061Z,99611
2022-08-16T20:47:27.019Z,99613
2022-08-16T20:52:27.077Z,99617
2022-08-16T20:57:27.094Z,99618
2022-08-16T21:02:27.108Z,99622
2022-08-16T21:07:27.053Z,99625
2022-08-16T21:12:27.135Z,99625
2022-08-16T21:17:27.051Z,99628
2022-08-16T21:22:27.093Z,99636
2022-08-16T21:27:27.087Z,99633
2022-08-16T21:32:35.868Z,99638
2022-08-16T21:42:27.151Z,99634
2022-08-16T21:47:27.064Z,99638
2022-08-16T21:52:27.118Z,99639
2022-08-16T21:57:27.142Z,99645
2022-08-16T22:02:27.131Z,99647
2022-08-16T22:07:27.074Z,99648
2022-08-16T22:12:27.145Z,99640
2022-08-16T22:17:27.088Z,99646
2022-08-16T22:22:35.046Z,99646
2022-08-16T22:27:27.185Z,99660
2022-08-16T22:32:27.158Z,99660
2022-08-16T22:37:27.101Z,99660
2022-08-16T22:42:27.164Z,99654
2022-08-16T22:47:27.105Z,99654
2022-08-16T22:52:56.496Z,99656
2022-08-16T22:57:27.144Z,99652
2022-08-16T23:02:27.260Z,99652
2022-08-16T23:07:27.105Z,99649
2022-08-16T23:12:29.240Z,99651
2022-08-16T23:17:27.120Z,99651
2022-08-16T23:22:27.154Z,99648
2022-08-16T23:27:27.189Z,99644
2022-08-16T23:32:27.193Z,99644
2022-08-16T23:37:27.125Z,99647
2022-08-16T23:42:52.895Z,99652
2022-08-16T23:47:27.133Z,99657
2022-08-16T23:52:53.509Z,99661
2022-08-16T23:57:27.166Z,99664
